sensor_id;sensor_type;location;lat;lon;timestamp;pressure;altitude;pressure_sealevel;temperature;humidity
33795;BME280;51430;52.242;21.118;2023-05-10T00:01:53;100989.29;;;9.12;55.00
33795;BME280;51430;52.242;21.118;2023-05-10T00:04:20;100984.84;;;9.11;55.31
33795;BME280;51430;52.242;21.118;2023-05-10T00:06:47;100980.59;;;9.03;55.08
33795;BME280;51430;52.242;21.118;2023-05-10T00:09:13;100980.52;;;9.05;55.29
33795;BME280;51430;52.242;21.118;2023-05-10T00:11:40;100977.85;;;9.03;55.16
33795;BME280;51430;52.242;21.118;2023-05-10T00:14:06;100974.04;;;9.00;54.98
33795;BME280;51430;52.242;21.118;2023-05-10T00:16:32;100973.50;;;9.00;54.88
33795;BME280;51430;52.242;21.118;2023-05-10T00:18:59;100972.33;;;8.99;54.54
33795;BME280;51430;52.242;21.118;2023-05-10T00:21:25;100968.97;;;9.00;54.57
33795;BME280;51430;52.242;21.118;2023-05-10T00:23:51;100967.39;;;9.00;54.49
33795;BME280;51430;52.242;21.118;2023-05-10T00:26:18;100964.73;;;9.04;54.30
33795;BME280;51430;52.242;21.118;2023-05-10T00:28:44;100963.80;;;9.05;53.91
33795;BME280;51430;52.242;21.118;2023-05-10T00:31:10;100962.64;;;9.04;53.86
33795;BME280;51430;52.242;21.118;2023-05-10T00:33:37;100960.30;;;9.05;53.60
33795;BME280;51430;52.242;21.118;2023-05-10T00:36:03;100960.50;;;9.02;53.22
33795;BME280;51430;52.242;21.118;2023-05-10T00:38:30;100956.79;;;9.03;53.10
33795;BME280;51430;52.242;21.118;2023-05-10T00:40:56;100954.41;;;9.05;52.92
33795;BME280;51430;52.242;21.118;2023-05-10T00:43:22;100952.48;;;9.08;52.69
33795;BME280;51430;52.242;21.118;2023-05-10T00:45:49;100956.02;;;9.07;52.75
33795;BME280;51430;52.242;21.118;2023-05-10T00:48:16;100953.27;;;9.04;52.61
33795;BME280;51430;52.242;21.118;2023-05-10T00:50:42;100952.91;;;9.01;52.82
33795;BME280;51430;52.242;21.118;2023-05-10T00:53:08;100952.40;;;9.10;52.72
33795;BME280;51430;52.242;21.118;2023-05-10T00:55:35;100949.06;;;9.07;52.43
33795;BME280;51430;52.242;21.118;2023-05-10T00:58:02;100949.33;;;9.09;52.51
33795;BME280;51430;52.242;21.118;2023-05-10T01:00:28;100952.64;;;9.11;52.12
33795;BME280;51430;52.242;21.118;2023-05-10T01:02:55;100948.92;;;9.13;52.24
33795;BME280;51430;52.242;21.118;2023-05-10T01:05:22;100949.31;;;9.12;51.91
33795;BME280;51430;52.242;21.118;2023-05-10T01:07:48;100947.59;;;9.08;52.35
33795;BME280;51430;52.242;21.118;2023-05-10T01:10:15;100945.02;;;8.99;51.93
33795;BME280;51430;52.242;21.118;2023-05-10T01:12:43;100943.41;;;9.00;51.75
33795;BME280;51430;52.242;21.118;2023-05-10T01:15:12;100944.00;;;9.05;51.64
33795;BME280;51430;52.242;21.118;2023-05-10T01:17:40;100937.34;;;9.05;51.49
33795;BME280;51430;52.242;21.118;2023-05-10T01:20:09;100938.45;;;9.04;51.44
33795;BME280;51430;52.242;21.118;2023-05-10T01:30:35;100938.45;;;8.99;51.49
33795;BME280;51430;52.242;21.118;2023-05-10T01:33:19;100933.86;;;8.91;51.46
33795;BME280;51430;52.242;21.118;2023-05-10T01:35:57;100933.84;;;8.98;51.59
33795;BME280;51430;52.242;21.118;2023-05-10T01:38:51;100930.70;;;8.95;51.14
33795;BME280;51430;52.242;21.118;2023-05-10T01:41:33;100930.80;;;8.93;51.15
33795;BME280;51430;52.242;21.118;2023-05-10T01:46:39;100932.42;;;8.98;50.70
33795;BME280;51430;52.242;21.118;2023-05-10T01:49:19;100932.38;;;8.99;50.56
33795;BME280;51430;52.242;21.118;2023-05-10T01:51:50;100922.89;;;8.97;50.89
33795;BME280;51430;52.242;21.118;2023-05-10T01:54:20;100921.55;;;8.99;50.70
33795;BME280;51430;52.242;21.118;2023-05-10T01:56:52;100922.91;;;9.03;50.53
33795;BME280;51430;52.242;21.118;2023-05-10T01:59:19;100919.16;;;9.02;50.79
33795;BME280;51430;52.242;21.118;2023-05-10T02:01:47;100921.59;;;9.01;50.88
33795;BME280;51430;52.242;21.118;2023-05-10T02:04:16;100919.06;;;8.97;50.74
33795;BME280;51430;52.242;21.118;2023-05-10T02:06:45;100915.16;;;8.90;50.65
33795;BME280;51430;52.242;21.118;2023-05-10T02:09:13;100916.70;;;8.85;51.14
33795;BME280;51430;52.242;21.118;2023-05-10T02:11:42;100916.14;;;8.86;51.17
33795;BME280;51430;52.242;21.118;2023-05-10T02:14:11;100912.95;;;8.80;51.12
33795;BME280;51430;52.242;21.118;2023-05-10T02:16:38;100913.98;;;8.81;51.25
33795;BME280;51430;52.242;21.118;2023-05-10T02:19:06;100913.02;;;8.82;51.26
33795;BME280;51430;52.242;21.118;2023-05-10T02:21:35;100911.91;;;8.81;51.37
33795;BME280;51430;52.242;21.118;2023-05-10T02:24:05;100912.26;;;8.72;51.64
33795;BME280;51430;52.242;21.118;2023-05-10T02:26:33;100909.71;;;8.68;51.76
33795;BME280;51430;52.242;21.118;2023-05-10T02:29:02;100912.34;;;8.65;51.95
33795;BME280;51430;52.242;21.118;2023-05-10T02:31:33;100913.13;;;8.60;52.25
33795;BME280;51430;52.242;21.118;2023-05-10T02:34:02;100913.88;;;8.59;52.59
33795;BME280;51430;52.242;21.118;2023-05-10T02:36:29;100913.67;;;8.57;52.52
33795;BME280;51430;52.242;21.118;2023-05-10T02:38:56;100910.81;;;8.52;52.79
33795;BME280;51430;52.242;21.118;2023-05-10T02:41:24;100917.95;;;8.40;52.88
33795;BME280;51430;52.242;21.118;2023-05-10T02:43:56;100916.35;;;8.47;53.23
33795;BME280;51430;52.242;21.118;2023-05-10T02:46:23;100916.39;;;8.43;53.08
33795;BME280;51430;52.242;21.118;2023-05-10T02:48:50;100917.25;;;8.40;53.15
33795;BME280;51430;52.242;21.118;2023-05-10T02:51:16;100922.80;;;8.40;53.34
33795;BME280;51430;52.242;21.118;2023-05-10T02:53:46;100918.20;;;8.36;53.52
33795;BME280;51430;52.242;21.118;2023-05-10T02:56:23;100918.47;;;8.34;53.90
33795;BME280;51430;52.242;21.118;2023-05-10T02:58:52;100919.50;;;8.31;53.90
33795;BME280;51430;52.242;21.118;2023-05-10T03:01:18;100921.27;;;8.25;54.23
33795;BME280;51430;52.242;21.118;2023-05-10T03:03:45;100921.68;;;8.20;54.27
33795;BME280;51430;52.242;21.118;2023-05-10T03:06:11;100925.86;;;8.24;54.57
33795;BME280;51430;52.242;21.118;2023-05-10T03:08:38;100921.88;;;8.17;54.72
33795;BME280;51430;52.242;21.118;2023-05-10T03:16:55;100924.98;;;8.11;55.28
33795;BME280;51430;52.242;21.118;2023-05-10T03:19:27;100925.02;;;8.11;55.10
33795;BME280;51430;52.242;21.118;2023-05-10T03:21:59;100922.81;;;8.10;55.14
33795;BME280;51430;52.242;21.118;2023-05-10T03:24:27;100922.60;;;8.10;55.39
33795;BME280;51430;52.242;21.118;2023-05-10T03:26:55;100926.35;;;8.06;55.32
33795;BME280;51430;52.242;21.118;2023-05-10T03:29:25;100922.00;;;8.09;55.53
33795;BME280;51430;52.242;21.118;2023-05-10T03:31:52;100918.57;;;8.11;55.44
33795;BME280;51430;52.242;21.118;2023-05-10T03:34:24;100917.30;;;8.18;55.60
33795;BME280;51430;52.242;21.118;2023-05-10T03:36:50;100914.80;;;8.13;55.36
33795;BME280;51430;52.242;21.118;2023-05-10T03:39:17;100916.17;;;8.16;55.19
33795;BME280;51430;52.242;21.118;2023-05-10T03:41:43;100918.98;;;8.19;55.19
33795;BME280;51430;52.242;21.118;2023-05-10T03:44:10;100919.37;;;8.21;55.36
33795;BME280;51430;52.242;21.118;2023-05-10T03:46:36;100918.02;;;8.21;55.63
33795;BME280;51430;52.242;21.118;2023-05-10T03:49:03;100916.27;;;8.21;55.41
33795;BME280;51430;52.242;21.118;2023-05-10T03:51:29;100909.84;;;8.30;55.14
33795;BME280;51430;52.242;21.118;2023-05-10T03:53:57;100911.88;;;8.34;55.11
33795;BME280;51430;52.242;21.118;2023-05-10T03:56:23;100912.01;;;8.47;54.80
33795;BME280;51430;52.242;21.118;2023-05-10T03:58:49;100910.33;;;8.49;54.51
33795;BME280;51430;52.242;21.118;2023-05-10T04:01:16;100913.16;;;8.57;54.74
33795;BME280;51430;52.242;21.118;2023-05-10T04:03:42;100910.83;;;8.61;54.31
33795;BME280;51430;52.242;21.118;2023-05-10T04:06:08;100916.44;;;8.66;54.23
33795;BME280;51430;52.242;21.118;2023-05-10T04:08:37;100914.87;;;8.77;54.19
33795;BME280;51430;52.242;21.118;2023-05-10T04:11:05;100914.04;;;8.91;54.20
33795;BME280;51430;52.242;21.118;2023-05-10T04:13:32;100914.61;;;8.93;53.83
33795;BME280;51430;52.242;21.118;2023-05-10T04:15:58;100912.79;;;8.89;53.29
33795;BME280;51430;52.242;21.118;2023-05-10T04:18:25;100914.44;;;9.05;53.24
33795;BME280;51430;52.242;21.118;2023-05-10T04:20:51;100916.44;;;9.17;52.91
33795;BME280;51430;52.242;21.118;2023-05-10T04:23:18;100918.70;;;9.20;52.58
33795;BME280;51430;52.242;21.118;2023-05-10T04:25:44;100919.77;;;9.31;52.54
33795;BME280;51430;52.242;21.118;2023-05-10T04:28:10;100918.77;;;9.42;52.43
33795;BME280;51430;52.242;21.118;2023-05-10T04:30:37;100918.73;;;9.50;52.22
33795;BME280;51430;52.242;21.118;2023-05-10T04:33:03;100923.66;;;9.55;51.76
33795;BME280;51430;52.242;21.118;2023-05-10T04:35:30;100927.46;;;9.63;51.41
33795;BME280;51430;52.242;21.118;2023-05-10T04:37:56;100926.59;;;9.69;51.19
33795;BME280;51430;52.242;21.118;2023-05-10T04:40:22;100929.21;;;9.82;50.84
33795;BME280;51430;52.242;21.118;2023-05-10T04:42:49;100929.16;;;9.91;50.72
33795;BME280;51430;52.242;21.118;2023-05-10T04:45:15;100931.63;;;9.99;50.55
33795;BME280;51430;52.242;21.118;2023-05-10T04:47:41;100933.45;;;10.15;50.45
33795;BME280;51430;52.242;21.118;2023-05-10T04:50:08;100933.94;;;10.12;49.76
33795;BME280;51430;52.242;21.118;2023-05-10T04:52:35;100934.14;;;10.28;50.12
33795;BME280;51430;52.242;21.118;2023-05-10T04:55:05;100934.39;;;10.40;49.40
33795;BME280;51430;52.242;21.118;2023-05-10T04:57:37;100928.34;;;10.52;49.14
33795;BME280;51430;52.242;21.118;2023-05-10T05:00:04;100926.90;;;10.58;48.99
33795;BME280;51430;52.242;21.118;2023-05-10T05:02:30;100928.77;;;10.61;48.83
33795;BME280;51430;52.242;21.118;2023-05-10T05:04:57;100931.16;;;10.72;48.89
33795;BME280;51430;52.242;21.118;2023-05-10T05:07:26;100929.70;;;10.78;48.96
33795;BME280;51430;52.242;21.118;2023-05-10T05:09:52;100932.64;;;10.89;48.46
33795;BME280;51430;52.242;21.118;2023-05-10T05:12:19;100929.98;;;11.07;48.52
33795;BME280;51430;52.242;21.118;2023-05-10T05:14:45;100927.78;;;11.26;48.56
33795;BME280;51430;52.242;21.118;2023-05-10T05:17:12;100930.16;;;11.49;48.15
33795;BME280;51430;52.242;21.118;2023-05-10T05:19:38;100928.70;;;11.35;47.29
33795;BME280;51430;52.242;21.118;2023-05-10T05:22:07;100928.75;;;11.32;47.31
33795;BME280;51430;52.242;21.118;2023-05-10T05:24:37;100927.75;;;11.36;47.76
33795;BME280;51430;52.242;21.118;2023-05-10T05:27:04;100930.04;;;11.63;47.61
33795;BME280;51430;52.242;21.118;2023-05-10T05:29:31;100931.77;;;11.71;47.42
33795;BME280;51430;52.242;21.118;2023-05-10T05:31:58;100928.78;;;11.86;46.87
33795;BME280;51430;52.242;21.118;2023-05-10T05:34:24;100929.22;;;12.48;46.24
33795;BME280;51430;52.242;21.118;2023-05-10T05:36:51;100936.18;;;13.08;44.25
33795;BME280;51430;52.242;21.118;2023-05-10T05:39:18;100936.57;;;13.66;43.30
33795;BME280;51430;52.242;21.118;2023-05-10T05:41:44;100941.27;;;13.99;42.38
33795;BME280;51430;52.242;21.118;2023-05-10T05:44:12;100942.90;;;13.90;42.50
33795;BME280;51430;52.242;21.118;2023-05-10T05:46:38;100942.50;;;14.48;41.55
33795;BME280;51430;52.242;21.118;2023-05-10T05:49:04;100942.02;;;14.93;40.75
33795;BME280;51430;52.242;21.118;2023-05-10T05:51:31;100943.31;;;15.25;40.00
33795;BME280;51430;52.242;21.118;2023-05-10T05:53:57;100944.02;;;15.25;39.68
33795;BME280;51430;52.242;21.118;2023-05-10T05:56:24;100946.50;;;15.18;39.80
33795;BME280;51430;52.242;21.118;2023-05-10T05:58:50;100946.95;;;15.66;39.62
33795;BME280;51430;52.242;21.118;2023-05-10T06:01:17;100946.63;;;15.78;38.44
33795;BME280;51430;52.242;21.118;2023-05-10T06:03:43;100941.05;;;15.81;38.29
33795;BME280;51430;52.242;21.118;2023-05-10T06:06:09;100943.25;;;15.86;38.29
33795;BME280;51430;52.242;21.118;2023-05-10T06:08:36;100941.39;;;16.20;38.52
33795;BME280;51430;52.242;21.118;2023-05-10T06:11:02;100944.25;;;16.08;37.93
33795;BME280;51430;52.242;21.118;2023-05-10T06:13:30;100946.18;;;16.29;37.92
33795;BME280;51430;52.242;21.118;2023-05-10T06:15:58;100948.71;;;16.75;37.36
33795;BME280;51430;52.242;21.118;2023-05-10T06:18:24;100946.65;;;16.85;36.67
33795;BME280;51430;52.242;21.118;2023-05-10T06:20:51;100946.95;;;16.90;37.32
33795;BME280;51430;52.242;21.118;2023-05-10T06:23:18;100949.73;;;17.54;36.62
33795;BME280;51430;52.242;21.118;2023-05-10T06:25:44;100951.48;;;18.06;35.62
33795;BME280;51430;52.242;21.118;2023-05-10T06:28:10;100950.86;;;17.93;35.29
33795;BME280;51430;52.242;21.118;2023-05-10T06:30:37;100951.87;;;17.77;35.74
33795;BME280;51430;52.242;21.118;2023-05-10T06:33:03;100947.29;;;17.72;35.01
33795;BME280;51430;52.242;21.118;2023-05-10T06:35:30;100943.81;;;17.08;35.54
33795;BME280;51430;52.242;21.118;2023-05-10T06:37:58;100949.61;;;17.34;35.30
33795;BME280;51430;52.242;21.118;2023-05-10T06:40:24;100945.47;;;17.26;35.45
33795;BME280;51430;52.242;21.118;2023-05-10T06:42:50;100944.04;;;17.26;35.62
33795;BME280;51430;52.242;21.118;2023-05-10T06:45:17;100942.20;;;17.45;35.24
33795;BME280;51430;52.242;21.118;2023-05-10T06:47:43;100941.38;;;17.50;34.76
33795;BME280;51430;52.242;21.118;2023-05-10T06:50:10;100942.08;;;17.36;34.76
33795;BME280;51430;52.242;21.118;2023-05-10T06:52:40;100940.02;;;17.44;35.01
33795;BME280;51430;52.242;21.118;2023-05-10T06:55:07;100935.63;;;17.54;34.14
33795;BME280;51430;52.242;21.118;2023-05-10T06:57:34;100940.36;;;17.54;34.61
33795;BME280;51430;52.242;21.118;2023-05-10T07:00:01;100937.65;;;17.51;34.75
33795;BME280;51430;52.242;21.118;2023-05-10T07:02:27;100938.70;;;18.17;34.12
33795;BME280;51430;52.242;21.118;2023-05-10T07:04:54;100937.27;;;18.11;33.02
33795;BME280;51430;52.242;21.118;2023-05-10T07:07:20;100936.14;;;17.46;34.21
33795;BME280;51430;52.242;21.118;2023-05-10T07:09:47;100934.79;;;17.82;34.03
33795;BME280;51430;52.242;21.118;2023-05-10T07:12:13;100937.07;;;18.13;32.75
33795;BME280;51430;52.242;21.118;2023-05-10T07:14:41;100935.06;;;18.19;32.56
33795;BME280;51430;52.242;21.118;2023-05-10T07:17:08;100934.04;;;18.24;32.50
33795;BME280;51430;52.242;21.118;2023-05-10T07:19:35;100938.08;;;18.40;31.23
33795;BME280;51430;52.242;21.118;2023-05-10T07:22:02;100927.27;;;18.22;30.58
33795;BME280;51430;52.242;21.118;2023-05-10T07:24:28;100925.24;;;18.58;30.89
33795;BME280;51430;52.242;21.118;2023-05-10T07:26:55;100933.29;;;18.83;30.40
33795;BME280;51430;52.242;21.118;2023-05-10T07:29:21;100933.73;;;18.58;30.72
33795;BME280;51430;52.242;21.118;2023-05-10T07:31:47;100931.92;;;18.47;30.07
33795;BME280;51430;52.242;21.118;2023-05-10T07:34:14;100931.10;;;18.56;29.83
33795;BME280;51430;52.242;21.118;2023-05-10T07:36:40;100941.27;;;18.61;28.32
33795;BME280;51430;52.242;21.118;2023-05-10T07:39:07;100941.02;;;18.63;27.94
33795;BME280;51430;52.242;21.118;2023-05-10T07:41:33;100938.88;;;18.28;28.78
33795;BME280;51430;52.242;21.118;2023-05-10T07:44:01;100938.77;;;18.43;28.74
33795;BME280;51430;52.242;21.118;2023-05-10T07:46:28;100933.26;;;18.79;29.41
33795;BME280;51430;52.242;21.118;2023-05-10T07:48:54;100932.38;;;18.92;28.73
33795;BME280;51430;52.242;21.118;2023-05-10T07:51:21;100922.38;;;18.57;29.27
33795;BME280;51430;52.242;21.118;2023-05-10T07:53:47;100925.77;;;18.98;29.39
33795;BME280;51430;52.242;21.118;2023-05-10T07:56:25;100937.41;;;19.40;27.78
33795;BME280;51430;52.242;21.118;2023-05-10T07:58:54;100937.13;;;18.99;27.10
33795;BME280;51430;52.242;21.118;2023-05-10T08:01:20;100927.30;;;19.00;27.60
33795;BME280;51430;52.242;21.118;2023-05-10T08:03:46;100920.40;;;18.82;26.98
33795;BME280;51430;52.242;21.118;2023-05-10T08:06:14;100937.58;;;18.60;27.45
33795;BME280;51430;52.242;21.118;2023-05-10T08:08:41;100934.48;;;18.70;27.43
33795;BME280;51430;52.242;21.118;2023-05-10T08:11:08;100937.79;;;18.53;27.85
33795;BME280;51430;52.242;21.118;2023-05-10T08:13:35;100927.36;;;18.78;27.66
33795;BME280;51430;52.242;21.118;2023-05-10T08:16:01;100930.53;;;18.93;27.43
33795;BME280;51430;52.242;21.118;2023-05-10T08:18:28;100931.88;;;18.83;27.81
33795;BME280;51430;52.242;21.118;2023-05-10T08:20:55;100926.14;;;18.86;27.91
33795;BME280;51430;52.242;21.118;2023-05-10T08:23:21;100914.19;;;18.87;27.81
33795;BME280;51430;52.242;21.118;2023-05-10T08:25:48;100922.66;;;18.89;27.85
33795;BME280;51430;52.242;21.118;2023-05-10T08:28:14;100925.81;;;19.10;27.49
33795;BME280;51430;52.242;21.118;2023-05-10T08:30:41;100920.83;;;19.56;27.10
33795;BME280;51430;52.242;21.118;2023-05-10T08:33:07;100925.98;;;20.32;26.70
33795;BME280;51430;52.242;21.118;2023-05-10T08:35:34;100920.68;;;20.37;27.02
33795;BME280;51430;52.242;21.118;2023-05-10T08:38:01;100917.95;;;20.49;26.76
33795;BME280;51430;52.242;21.118;2023-05-10T08:40:27;100923.89;;;20.61;26.44
33795;BME280;51430;52.242;21.118;2023-05-10T08:42:59;100927.28;;;20.07;26.55
33795;BME280;51430;52.242;21.118;2023-05-10T08:45:32;100922.65;;;20.46;26.18
33795;BME280;51430;52.242;21.118;2023-05-10T08:48:01;100918.45;;;20.35;26.53
33795;BME280;51430;52.242;21.118;2023-05-10T08:50:29;100919.60;;;20.58;27.13
33795;BME280;51430;52.242;21.118;2023-05-10T08:52:57;100922.10;;;21.51;26.69
33795;BME280;51430;52.242;21.118;2023-05-10T08:55:25;100928.54;;;22.19;25.73
33795;BME280;51430;52.242;21.118;2023-05-10T08:57:52;100928.91;;;21.82;25.84
33795;BME280;51430;52.242;21.118;2023-05-10T09:00:19;100921.80;;;21.05;26.13
33795;BME280;51430;52.242;21.118;2023-05-10T09:02:49;100924.68;;;20.55;26.88
33795;BME280;51430;52.242;21.118;2023-05-10T09:05:15;100920.53;;;20.61;27.08
33795;BME280;51430;52.242;21.118;2023-05-10T09:07:44;100912.11;;;21.49;26.62
33795;BME280;51430;52.242;21.118;2023-05-10T09:10:11;100914.02;;;21.88;25.87
33795;BME280;51430;52.242;21.118;2023-05-10T09:12:38;100908.69;;;22.38;25.79
33795;BME280;51430;52.242;21.118;2023-05-10T09:15:05;100912.96;;;22.27;24.80
33795;BME280;51430;52.242;21.118;2023-05-10T09:17:33;100901.39;;;21.97;25.32
33795;BME280;51430;52.242;21.118;2023-05-10T09:20:01;100908.40;;;21.96;25.48
33795;BME280;51430;52.242;21.118;2023-05-10T09:22:27;100896.68;;;21.24;25.83
33795;BME280;51430;52.242;21.118;2023-05-10T09:25:04;100900.08;;;21.61;25.87
33795;BME280;51430;52.242;21.118;2023-05-10T09:27:30;100899.52;;;22.34;25.74
33795;BME280;51430;52.242;21.118;2023-05-10T09:29:57;100892.26;;;23.10;24.99
33795;BME280;51430;52.242;21.118;2023-05-10T09:32:40;100892.15;;;23.95;24.35
33795;BME280;51430;52.242;21.118;2023-05-10T09:35:09;100901.92;;;22.47;24.81
33795;BME280;51430;52.242;21.118;2023-05-10T09:37:36;100900.15;;;22.25;24.84
33795;BME280;51430;52.242;21.118;2023-05-10T09:40:06;100904.08;;;23.08;25.08
33795;BME280;51430;52.242;21.118;2023-05-10T09:42:34;100912.41;;;23.15;23.97
33795;BME280;51430;52.242;21.118;2023-05-10T09:45:05;100906.93;;;22.54;24.64
33795;BME280;51430;52.242;21.118;2023-05-10T09:47:32;100896.98;;;22.92;24.61
33795;BME280;51430;52.242;21.118;2023-05-10T09:50:00;100897.25;;;22.96;24.29
33795;BME280;51430;52.242;21.118;2023-05-10T09:52:30;100905.90;;;22.21;24.31
33795;BME280;51430;52.242;21.118;2023-05-10T09:55:06;100901.98;;;21.97;24.99
33795;BME280;51430;52.242;21.118;2023-05-10T09:57:33;100900.01;;;22.89;23.93
33795;BME280;51430;52.242;21.118;2023-05-10T10:00:01;100905.07;;;22.61;23.62
33795;BME280;51430;52.242;21.118;2023-05-10T10:02:29;100896.34;;;22.45;24.14
33795;BME280;51430;52.242;21.118;2023-05-10T10:04:57;100890.39;;;23.59;24.02
33795;BME280;51430;52.242;21.118;2023-05-10T10:07:24;100902.07;;;24.37;22.77
33795;BME280;51430;52.242;21.118;2023-05-10T10:09:51;100891.76;;;23.92;23.89
33795;BME280;51430;52.242;21.118;2023-05-10T10:12:19;100888.00;;;25.15;23.08
33795;BME280;51430;52.242;21.118;2023-05-10T10:14:47;100883.01;;;24.20;23.15
33795;BME280;51430;52.242;21.118;2023-05-10T10:17:17;100883.44;;;24.50;23.41
33795;BME280;51430;52.242;21.118;2023-05-10T10:19:47;100885.13;;;24.55;23.56
33795;BME280;51430;52.242;21.118;2023-05-10T10:22:17;100876.52;;;24.75;23.42
33795;BME280;51430;52.242;21.118;2023-05-10T10:24:43;100877.40;;;24.72;23.45
33795;BME280;51430;52.242;21.118;2023-05-10T10:27:32;100869.81;;;24.58;23.68
33795;BME280;51430;52.242;21.118;2023-05-10T10:35:55;100868.84;;;24.29;22.49
33795;BME280;51430;52.242;21.118;2023-05-10T10:38:23;100860.95;;;24.17;22.42
33795;BME280;51430;52.242;21.118;2023-05-10T10:41:09;100857.36;;;23.94;22.88
33795;BME280;51430;52.242;21.118;2023-05-10T10:43:36;100860.89;;;24.23;23.30
33795;BME280;51430;52.242;21.118;2023-05-10T10:46:15;100854.14;;;24.14;22.75
33795;BME280;51430;52.242;21.118;2023-05-10T10:48:51;100849.10;;;24.12;23.43
33795;BME280;51430;52.242;21.118;2023-05-10T10:51:38;100848.45;;;25.29;23.20
33795;BME280;51430;52.242;21.118;2023-05-10T10:54:11;100853.44;;;25.08;22.57
33795;BME280;51430;52.242;21.118;2023-05-10T10:56:37;100851.33;;;25.37;22.41
33795;BME280;51430;52.242;21.118;2023-05-10T10:59:04;100848.35;;;24.33;23.04
33795;BME280;51430;52.242;21.118;2023-05-10T11:01:34;100840.74;;;24.42;23.06
33795;BME280;51430;52.242;21.118;2023-05-10T11:06:32;100858.98;;;24.25;22.89
33795;BME280;51430;52.242;21.118;2023-05-10T11:09:08;100836.96;;;23.48;23.46
33795;BME280;51430;52.242;21.118;2023-05-10T11:11:35;100839.64;;;24.32;23.43
33795;BME280;51430;52.242;21.118;2023-05-10T11:14:06;100836.86;;;24.14;23.02
33795;BME280;51430;52.242;21.118;2023-05-10T11:16:43;100839.14;;;23.55;23.64
33795;BME280;51430;52.242;21.118;2023-05-10T11:19:12;100849.27;;;23.75;23.69
33795;BME280;51430;52.242;21.118;2023-05-10T11:24:17;100836.67;;;24.38;23.37
33795;BME280;51430;52.242;21.118;2023-05-10T11:26:44;100846.61;;;25.51;22.89
33795;BME280;51430;52.242;21.118;2023-05-10T11:29:12;100833.91;;;26.98;21.90
33795;BME280;51430;52.242;21.118;2023-05-10T11:31:43;100835.02;;;27.85;21.25
33795;BME280;51430;52.242;21.118;2023-05-10T11:34:10;100831.09;;;28.74;20.81
33795;BME280;51430;52.242;21.118;2023-05-10T11:36:37;100838.08;;;28.15;20.29
33795;BME280;51430;52.242;21.118;2023-05-10T11:39:04;100835.02;;;25.93;21.60
33795;BME280;51430;52.242;21.118;2023-05-10T11:41:31;100826.66;;;24.60;23.05
33795;BME280;51430;52.242;21.118;2023-05-10T11:43:58;100824.12;;;25.58;23.33
33795;BME280;51430;52.242;21.118;2023-05-10T11:46:27;100821.14;;;27.21;21.79
33795;BME280;51430;52.242;21.118;2023-05-10T11:48:59;100830.12;;;27.07;21.06
33795;BME280;51430;52.242;21.118;2023-05-10T11:51:27;100829.27;;;26.15;21.56
33795;BME280;51430;52.242;21.118;2023-05-10T11:53:55;100821.62;;;25.49;22.11
33795;BME280;51430;52.242;21.118;2023-05-10T11:56:22;100821.31;;;25.93;22.45
33795;BME280;51430;52.242;21.118;2023-05-10T11:58:54;100820.73;;;24.82;22.64
33795;BME280;51430;52.242;21.118;2023-05-10T12:01:22;100811.89;;;24.35;22.99
33795;BME280;51430;52.242;21.118;2023-05-10T12:03:50;100810.52;;;23.34;24.13
33795;BME280;51430;52.242;21.118;2023-05-10T12:06:18;100812.29;;;23.70;24.10
33795;BME280;51430;52.242;21.118;2023-05-10T12:08:46;100815.59;;;24.23;23.80
33795;BME280;51430;52.242;21.118;2023-05-10T12:11:13;100816.32;;;24.44;23.55
33795;BME280;51430;52.242;21.118;2023-05-10T12:13:43;100807.64;;;24.48;23.49
33795;BME280;51430;52.242;21.118;2023-05-10T12:16:32;100810.45;;;24.93;23.10
33795;BME280;51430;52.242;21.118;2023-05-10T12:19:00;100808.67;;;24.45;22.96
33795;BME280;51430;52.242;21.118;2023-05-10T12:21:28;100814.64;;;24.87;23.35
33795;BME280;51430;52.242;21.118;2023-05-10T12:24:00;100808.91;;;25.84;22.90
33795;BME280;51430;52.242;21.118;2023-05-10T12:26:28;100811.52;;;26.60;22.09
33795;BME280;51430;52.242;21.118;2023-05-10T12:29:17;100809.76;;;27.38;21.67
33795;BME280;51430;52.242;21.118;2023-05-10T12:32:10;100807.60;;;26.95;21.10
33795;BME280;51430;52.242;21.118;2023-05-10T12:34:37;100813.43;;;25.98;21.32
33795;BME280;51430;52.242;21.118;2023-05-10T12:37:04;100809.23;;;25.53;21.91
33795;BME280;51430;52.242;21.118;2023-05-10T12:39:41;100807.79;;;25.25;22.41
33795;BME280;51430;52.242;21.118;2023-05-10T12:42:09;100805.23;;;24.59;22.85
33795;BME280;51430;52.242;21.118;2023-05-10T12:44:36;100803.20;;;24.36;23.18
33795;BME280;51430;52.242;21.118;2023-05-10T12:47:02;100805.31;;;24.08;23.65
33795;BME280;51430;52.242;21.118;2023-05-10T12:49:28;100797.79;;;23.79;24.25
33795;BME280;51430;52.242;21.118;2023-05-10T12:51:55;100795.19;;;24.99;23.85
33795;BME280;51430;52.242;21.118;2023-05-10T12:54:21;100789.23;;;25.37;23.15
33795;BME280;51430;52.242;21.118;2023-05-10T12:56:48;100787.48;;;25.15;23.45
33795;BME280;51430;52.242;21.118;2023-05-10T12:59:14;100794.87;;;24.18;24.40
33795;BME280;51430;52.242;21.118;2023-05-10T13:01:40;100788.91;;;24.54;24.07
33795;BME280;51430;52.242;21.118;2023-05-10T13:04:07;100784.39;;;25.22;23.85
33795;BME280;51430;52.242;21.118;2023-05-10T13:06:33;100784.26;;;26.01;23.43
33795;BME280;51430;52.242;21.118;2023-05-10T13:09:01;100780.73;;;25.14;23.71
33795;BME280;51430;52.242;21.118;2023-05-10T13:11:27;100778.00;;;24.42;24.77
33795;BME280;51430;52.242;21.118;2023-05-10T13:13:53;100780.42;;;25.61;24.43
33795;BME280;51430;52.242;21.118;2023-05-10T13:16:20;100774.82;;;26.35;23.65